sensor_id;sensor_type;location;lat;lon;timestamp;P1;durP1;ratioP1;P2;durP2;ratioP2
33138;SDS011;19501;50.948;5.316;2023-08-31T00:00:31;10.70;;;3.50;;
33138;SDS011;19501;50.948;5.316;2023-08-31T00:02:59;9.00;;;3.63;;
33138;SDS011;19501;50.948;5.316;2023-08-31T00:05:25;6.65;;;3.33;;
33138;SDS011;19501;50.948;5.316;2023-08-31T00:07:54;8.70;;;3.42;;
33138;SDS011;19501;50.948;5.316;2023-08-31T00:10:22;7.47;;;3.22;;
33138;SDS011;19501;50.948;5.316;2023-08-31T00:12:48;7.80;;;3.17;;
33138;SDS011;19501;50.948;5.316;2023-08-31T00:15:17;8.27;;;3.40;;
33138;SDS011;19501;50.948;5.316;2023-08-31T00:17:43;6.65;;;3.42;;
33138;SDS011;19501;50.948;5.316;2023-08-31T00:20:08;7.10;;;3.10;;
33138;SDS011;19501;50.948;5.316;2023-08-31T00:22:37;8.20;;;3.70;;
33138;SDS011;19501;50.948;5.316;2023-08-31T00:25:04;9.68;;;3.30;;
33138;SDS011;19501;50.948;5.316;2023-08-31T00:27:33;6.78;;;3.38;;
33138;SDS011;19501;50.948;5.316;2023-08-31T00:30:02;5.97;;;3.10;;
33138;SDS011;19501;50.948;5.316;2023-08-31T00:32:31;6.90;;;3.03;;
33138;SDS011;19501;50.948;5.316;2023-08-31T00:34:58;6.40;;;3.00;;
33138;SDS011;19501;50.948;5.316;2023-08-31T00:37:24;7.30;;;3.40;;
33138;SDS011;19501;50.948;5.316;2023-08-31T00:39:50;6.15;;;3.00;;
33138;SDS011;19501;50.948;5.316;2023-08-31T00:42:17;8.55;;;3.30;;
33138;SDS011;19501;50.948;5.316;2023-08-31T00:44:43;12.80;;;3.42;;
33138;SDS011;19501;50.948;5.316;2023-08-31T00:47:12;7.68;;;3.40;;
33138;SDS011;19501;50.948;5.316;2023-08-31T00:49:38;7.68;;;3.22;;
33138;SDS011;19501;50.948;5.316;2023-08-31T00:52:05;10.95;;;3.53;;
33138;SDS011;19501;50.948;5.316;2023-08-31T00:54:32;7.03;;;3.30;;
33138;SDS011;19501;50.948;5.316;2023-08-31T00:56:58;8.75;;;3.05;;
33138;SDS011;19501;50.948;5.316;2023-08-31T00:59:24;8.77;;;3.33;;
33138;SDS011;19501;50.948;5.316;2023-08-31T01:01:51;10.13;;;3.50;;
33138;SDS011;19501;50.948;5.316;2023-08-31T01:04:29;8.18;;;2.95;;
33138;SDS011;19501;50.948;5.316;2023-08-31T01:13:03;5.88;;;3.00;;
33138;SDS011;19501;50.948;5.316;2023-08-31T01:15:43;7.95;;;3.55;;
33138;SDS011;19501;50.948;5.316;2023-08-31T01:18:11;11.63;;;3.53;;
33138;SDS011;19501;50.948;5.316;2023-08-31T01:20:42;10.48;;;4.13;;
33138;SDS011;19501;50.948;5.316;2023-08-31T01:23:18;6.57;;;2.92;;
33138;SDS011;19501;50.948;5.316;2023-08-31T01:25:45;8.38;;;3.67;;
33138;SDS011;19501;50.948;5.316;2023-08-31T01:28:14;7.68;;;3.50;;
33138;SDS011;19501;50.948;5.316;2023-08-31T01:30:40;9.48;;;4.10;;
33138;SDS011;19501;50.948;5.316;2023-08-31T01:33:08;6.50;;;3.28;;
33138;SDS011;19501;50.948;5.316;2023-08-31T01:35:37;8.43;;;3.40;;
33138;SDS011;19501;50.948;5.316;2023-08-31T01:38:08;9.60;;;3.63;;
33138;SDS011;19501;50.948;5.316;2023-08-31T01:40:37;8.05;;;3.50;;
33138;SDS011;19501;50.948;5.316;2023-08-31T01:43:22;9.65;;;3.35;;
33138;SDS011;19501;50.948;5.316;2023-08-31T01:45:48;7.40;;;3.22;;
33138;SDS011;19501;50.948;5.316;2023-08-31T01:48:15;6.40;;;3.40;;
33138;SDS011;19501;50.948;5.316;2023-08-31T01:50:40;11.15;;;3.33;;
33138;SDS011;19501;50.948;5.316;2023-08-31T01:53:06;12.20;;;3.83;;
33138;SDS011;19501;50.948;5.316;2023-08-31T01:55:32;7.82;;;3.13;;
33138;SDS011;19501;50.948;5.316;2023-08-31T01:57:58;10.43;;;3.10;;
33138;SDS011;19501;50.948;5.316;2023-08-31T02:00:24;15.50;;;3.40;;
33138;SDS011;19501;50.948;5.316;2023-08-31T02:02:53;10.43;;;3.70;;
33138;SDS011;19501;50.948;5.316;2023-08-31T02:05:19;8.93;;;3.38;;
33138;SDS011;19501;50.948;5.316;2023-08-31T02:07:45;8.00;;;3.60;;
33138;SDS011;19501;50.948;5.316;2023-08-31T02:10:10;7.28;;;3.60;;
33138;SDS011;19501;50.948;5.316;2023-08-31T02:12:38;9.05;;;4.00;;
33138;SDS011;19501;50.948;5.316;2023-08-31T02:15:04;11.90;;;3.80;;
33138;SDS011;19501;50.948;5.316;2023-08-31T02:17:31;9.50;;;3.90;;
33138;SDS011;19501;50.948;5.316;2023-08-31T02:19:59;8.77;;;4.18;;
33138;SDS011;19501;50.948;5.316;2023-08-31T02:24:59;12.10;;;4.45;;
33138;SDS011;19501;50.948;5.316;2023-08-31T02:27:26;10.88;;;4.78;;
33138;SDS011;19501;50.948;5.316;2023-08-31T02:29:52;13.35;;;5.43;;
33138;SDS011;19501;50.948;5.316;2023-08-31T02:32:17;12.10;;;5.30;;
33138;SDS011;19501;50.948;5.316;2023-08-31T02:34:43;14.32;;;5.80;;
33138;SDS011;19501;50.948;5.316;2023-08-31T02:37:09;12.48;;;5.00;;
33138;SDS011;19501;50.948;5.316;2023-08-31T02:39:35;12.80;;;5.85;;
33138;SDS011;19501;50.948;5.316;2023-08-31T02:42:01;14.00;;;5.53;;
33138;SDS011;19501;50.948;5.316;2023-08-31T02:44:30;14.80;;;5.90;;
33138;SDS011;19501;50.948;5.316;2023-08-31T02:46:56;15.40;;;6.25;;
33138;SDS011;19501;50.948;5.316;2023-08-31T02:49:24;16.08;;;6.30;;
33138;SDS011;19501;50.948;5.316;2023-08-31T02:51:49;14.70;;;5.97;;
33138;SDS011;19501;50.948;5.316;2023-08-31T02:54:17;18.90;;;6.68;;
33138;SDS011;19501;50.948;5.316;2023-08-31T02:56:44;15.25;;;6.80;;
33138;SDS011;19501;50.948;5.316;2023-08-31T02:59:10;14.95;;;6.28;;
33138;SDS011;19501;50.948;5.316;2023-08-31T03:01:36;15.65;;;6.68;;
33138;SDS011;19501;50.948;5.316;2023-08-31T03:04:01;13.57;;;5.47;;
33138;SDS011;19501;50.948;5.316;2023-08-31T03:06:28;11.68;;;5.20;;
33138;SDS011;19501;50.948;5.316;2023-08-31T03:08:53;18.70;;;6.72;;
33138;SDS011;19501;50.948;5.316;2023-08-31T03:11:19;14.70;;;7.10;;
33138;SDS011;19501;50.948;5.316;2023-08-31T03:13:45;16.80;;;7.18;;
33138;SDS011;19501;50.948;5.316;2023-08-31T03:16:10;15.63;;;6.65;;
33138;SDS011;19501;50.948;5.316;2023-08-31T03:18:36;15.75;;;6.82;;
33138;SDS011;19501;50.948;5.316;2023-08-31T03:21:02;20.10;;;6.63;;
33138;SDS011;19501;50.948;5.316;2023-08-31T03:23:28;16.08;;;7.70;;
33138;SDS011;19501;50.948;5.316;2023-08-31T03:25:54;17.45;;;7.18;;
33138;SDS011;19501;50.948;5.316;2023-08-31T03:28:20;18.08;;;7.57;;
33138;SDS011;19501;50.948;5.316;2023-08-31T03:30:46;17.48;;;7.15;;
33138;SDS011;19501;50.948;5.316;2023-08-31T03:33:19;17.50;;;8.35;;
33138;SDS011;19501;50.948;5.316;2023-08-31T03:35:44;20.73;;;8.35;;
33138;SDS011;19501;50.948;5.316;2023-08-31T03:38:10;18.75;;;7.57;;
33138;SDS011;19501;50.948;5.316;2023-08-31T03:40:36;17.23;;;7.70;;
33138;SDS011;19501;50.948;5.316;2023-08-31T03:43:01;22.02;;;9.23;;
33138;SDS011;19501;50.948;5.316;2023-08-31T03:45:28;18.77;;;8.38;;
33138;SDS011;19501;50.948;5.316;2023-08-31T03:47:54;17.02;;;8.02;;
33138;SDS011;19501;50.948;5.316;2023-08-31T03:50:19;18.88;;;8.75;;
33138;SDS011;19501;50.948;5.316;2023-08-31T03:52:45;22.00;;;9.00;;
33138;SDS011;19501;50.948;5.316;2023-08-31T03:55:11;21.98;;;9.00;;
33138;SDS011;19501;50.948;5.316;2023-08-31T03:57:39;20.13;;;8.48;;
33138;SDS011;19501;50.948;5.316;2023-08-31T04:00:05;18.83;;;8.32;;
33138;SDS011;19501;50.948;5.316;2023-08-31T04:02:34;23.40;;;9.45;;
33138;SDS011;19501;50.948;5.316;2023-08-31T04:05:01;21.38;;;9.43;;
33138;SDS011;19501;50.948;5.316;2023-08-31T04:07:30;19.13;;;8.65;;
33138;SDS011;19501;50.948;5.316;2023-08-31T04:09:57;22.65;;;8.73;;
33138;SDS011;19501;50.948;5.316;2023-08-31T04:12:22;19.90;;;8.77;;
33138;SDS011;19501;50.948;5.316;2023-08-31T04:14:48;20.83;;;8.30;;
33138;SDS011;19501;50.948;5.316;2023-08-31T04:17:14;20.98;;;8.52;;
33138;SDS011;19501;50.948;5.316;2023-08-31T04:19:39;21.50;;;9.00;;
33138;SDS011;19501;50.948;5.316;2023-08-31T04:22:05;22.10;;;9.50;;
33138;SDS011;19501;50.948;5.316;2023-08-31T04:24:31;22.48;;;8.82;;
33138;SDS011;19501;50.948;5.316;2023-08-31T04:26:56;19.50;;;9.07;;
33138;SDS011;19501;50.948;5.316;2023-08-31T04:29:22;27.92;;;9.80;;
33138;SDS011;19501;50.948;5.316;2023-08-31T04:31:48;25.45;;;8.57;;
33138;SDS011;19501;50.948;5.316;2023-08-31T04:34:14;20.40;;;8.65;;
33138;SDS011;19501;50.948;5.316;2023-08-31T04:36:39;22.00;;;8.30;;
33138;SDS011;19501;50.948;5.316;2023-08-31T04:39:08;19.38;;;9.00;;
33138;SDS011;19501;50.948;5.316;2023-08-31T04:41:34;24.20;;;8.77;;
33138;SDS011;19501;50.948;5.316;2023-08-31T04:43:59;19.73;;;8.15;;
33138;SDS011;19501;50.948;5.316;2023-08-31T04:46:25;19.33;;;8.45;;
33138;SDS011;19501;50.948;5.316;2023-08-31T04:48:51;24.50;;;8.77;;
33138;SDS011;19501;50.948;5.316;2023-08-31T04:51:27;20.90;;;8.93;;
33138;SDS011;19501;50.948;5.316;2023-08-31T04:54:04;27.08;;;9.00;;
33138;SDS011;19501;50.948;5.316;2023-08-31T04:56:31;23.42;;;9.48;;
33138;SDS011;19501;50.948;5.316;2023-08-31T04:58:58;20.23;;;8.63;;
33138;SDS011;19501;50.948;5.316;2023-08-31T05:01:24;19.17;;;7.95;;
33138;SDS011;19501;50.948;5.316;2023-08-31T05:03:50;20.02;;;8.48;;
33138;SDS011;19501;50.948;5.316;2023-08-31T05:06:16;24.38;;;8.77;;
33138;SDS011;19501;50.948;5.316;2023-08-31T05:08:42;22.67;;;8.10;;
33138;SDS011;19501;50.948;5.316;2023-08-31T05:11:07;18.90;;;7.57;;
33138;SDS011;19501;50.948;5.316;2023-08-31T05:13:33;21.50;;;7.97;;
33138;SDS011;19501;50.948;5.316;2023-08-31T05:15:59;24.20;;;7.90;;
33138;SDS011;19501;50.948;5.316;2023-08-31T05:18:25;26.52;;;7.82;;
33138;SDS011;19501;50.948;5.316;2023-08-31T05:20:51;20.00;;;7.53;;
33138;SDS011;19501;50.948;5.316;2023-08-31T05:23:17;18.63;;;7.20;;
33138;SDS011;19501;50.948;5.316;2023-08-31T05:25:45;21.00;;;7.68;;
33138;SDS011;19501;50.948;5.316;2023-08-31T05:28:11;18.13;;;7.00;;
33138;SDS011;19501;50.948;5.316;2023-08-31T05:30:45;21.42;;;6.28;;
33138;SDS011;19501;50.948;5.316;2023-08-31T05:33:18;18.58;;;7.00;;
33138;SDS011;19501;50.948;5.316;2023-08-31T05:35:45;18.60;;;6.78;;
33138;SDS011;19501;50.948;5.316;2023-08-31T05:38:11;18.08;;;6.45;;
33138;SDS011;19501;50.948;5.316;2023-08-31T05:40:37;15.85;;;6.03;;
33138;SDS011;19501;50.948;5.316;2023-08-31T05:43:10;16.80;;;6.28;;
33138;SDS011;19501;50.948;5.316;2023-08-31T05:45:37;18.70;;;6.10;;
33138;SDS011;19501;50.948;5.316;2023-08-31T05:48:03;16.00;;;5.57;;
33138;SDS011;19501;50.948;5.316;2023-08-31T05:50:29;17.85;;;6.30;;
33138;SDS011;19501;50.948;5.316;2023-08-31T05:52:55;18.27;;;6.50;;
33138;SDS011;19501;50.948;5.316;2023-08-31T05:55:21;16.02;;;6.10;;
33138;SDS011;19501;50.948;5.316;2023-08-31T05:57:47;22.67;;;6.53;;
33138;SDS011;19501;50.948;5.316;2023-08-31T06:00:13;17.45;;;5.90;;
33138;SDS011;19501;50.948;5.316;2023-08-31T06:02:39;18.73;;;6.40;;
33138;SDS011;19501;50.948;5.316;2023-08-31T06:05:05;21.40;;;6.53;;
33138;SDS011;19501;50.948;5.316;2023-08-31T06:07:31;20.15;;;6.00;;
33138;SDS011;19501;50.948;5.316;2023-08-31T06:09:57;22.20;;;5.82;;
33138;SDS011;19501;50.948;5.316;2023-08-31T06:12:23;16.88;;;5.95;;
33138;SDS011;19501;50.948;5.316;2023-08-31T06:14:48;16.90;;;5.35;;
33138;SDS011;19501;50.948;5.316;2023-08-31T06:17:14;18.90;;;6.32;;
33138;SDS011;19501;50.948;5.316;2023-08-31T06:19:42;17.75;;;5.75;;
33138;SDS011;19501;50.948;5.316;2023-08-31T06:22:08;17.48;;;5.20;;
33138;SDS011;19501;50.948;5.316;2023-08-31T06:24:34;14.38;;;4.93;;
33138;SDS011;19501;50.948;5.316;2023-08-31T06:27:00;13.25;;;5.35;;
33138;SDS011;19501;50.948;5.316;2023-08-31T06:29:26;17.88;;;5.15;;
33138;SDS011;19501;50.948;5.316;2023-08-31T06:31:54;17.23;;;5.20;;
33138;SDS011;19501;50.948;5.316;2023-08-31T06:34:19;16.38;;;5.32;;
33138;SDS011;19501;50.948;5.316;2023-08-31T06:36:45;18.02;;;5.13;;
33138;SDS011;19501;50.948;5.316;2023-08-31T06:39:11;18.23;;;6.03;;
33138;SDS011;19501;50.948;5.316;2023-08-31T06:41:39;13.57;;;5.05;;
33138;SDS011;19501;50.948;5.316;2023-08-31T06:44:04;14.57;;;5.38;;
33138;SDS011;19501;50.948;5.316;2023-08-31T06:46:30;15.20;;;5.10;;
33138;SDS011;19501;50.948;5.316;2023-08-31T06:49:03;13.82;;;4.78;;
33138;SDS011;19501;50.948;5.316;2023-08-31T06:51:30;15.32;;;5.75;;
33138;SDS011;19501;50.948;5.316;2023-08-31T06:53:56;13.95;;;5.30;;
33138;SDS011;19501;50.948;5.316;2023-08-31T06:56:31;15.32;;;5.88;;
33138;SDS011;19501;50.948;5.316;2023-08-31T06:58:58;22.98;;;5.60;;
33138;SDS011;19501;50.948;5.316;2023-08-31T07:01:23;21.25;;;5.90;;
33138;SDS011;19501;50.948;5.316;2023-08-31T07:03:49;18.27;;;5.65;;
33138;SDS011;19501;50.948;5.316;2023-08-31T07:06:15;16.90;;;6.53;;
33138;SDS011;19501;50.948;5.316;2023-08-31T07:08:40;18.63;;;5.15;;
33138;SDS011;19501;50.948;5.316;2023-08-31T07:11:07;21.52;;;5.93;;
33138;SDS011;19501;50.948;5.316;2023-08-31T07:13:32;19.42;;;5.97;;
33138;SDS011;19501;50.948;5.316;2023-08-31T07:15:58;16.73;;;5.93;;
33138;SDS011;19501;50.948;5.316;2023-08-31T07:18:24;19.02;;;6.55;;
33138;SDS011;19501;50.948;5.316;2023-08-31T07:20:49;20.33;;;6.43;;
33138;SDS011;19501;50.948;5.316;2023-08-31T07:23:17;18.17;;;6.10;;
33138;SDS011;19501;50.948;5.316;2023-08-31T07:25:43;17.60;;;6.10;;
33138;SDS011;19501;50.948;5.316;2023-08-31T07:28:09;17.20;;;6.00;;
33138;SDS011;19501;50.948;5.316;2023-08-31T07:30:35;17.15;;;5.72;;
33138;SDS011;19501;50.948;5.316;2023-08-31T07:33:05;22.05;;;5.88;;
33138;SDS011;19501;50.948;5.316;2023-08-31T07:35:31;20.67;;;6.47;;
33138;SDS011;19501;50.948;5.316;2023-08-31T07:37:59;23.98;;;6.88;;
33138;SDS011;19501;50.948;5.316;2023-08-31T07:40:25;26.02;;;7.72;;
33138;SDS011;19501;50.948;5.316;2023-08-31T07:42:51;17.55;;;6.50;;
33138;SDS011;19501;50.948;5.316;2023-08-31T07:45:17;19.08;;;6.43;;
33138;SDS011;19501;50.948;5.316;2023-08-31T07:47:43;16.67;;;6.55;;
33138;SDS011;19501;50.948;5.316;2023-08-31T07:50:09;20.42;;;6.22;;
33138;SDS011;19501;50.948;5.316;2023-08-31T07:52:35;18.75;;;5.93;;
33138;SDS011;19501;50.948;5.316;2023-08-31T07:55:02;18.83;;;5.68;;
33138;SDS011;19501;50.948;5.316;2023-08-31T07:57:28;16.30;;;6.45;;
33138;SDS011;19501;50.948;5.316;2023-08-31T07:59:54;20.20;;;6.60;;
33138;SDS011;19501;50.948;5.316;2023-08-31T08:02:20;20.52;;;7.28;;
33138;SDS011;19501;50.948;5.316;2023-08-31T08:04:46;26.60;;;7.07;;
33138;SDS011;19501;50.948;5.316;2023-08-31T08:07:11;21.67;;;6.47;;
33138;SDS011;19501;50.948;5.316;2023-08-31T08:09:37;19.58;;;7.30;;
33138;SDS011;19501;50.948;5.316;2023-08-31T08:12:03;24.88;;;6.18;;
33138;SDS011;19501;50.948;5.316;2023-08-31T08:14:29;19.17;;;6.55;;
33138;SDS011;19501;50.948;5.316;2023-08-31T08:16:55;25.10;;;7.88;;
33138;SDS011;19501;50.948;5.316;2023-08-31T08:19:23;22.23;;;6.85;;
33138;SDS011;19501;50.948;5.316;2023-08-31T08:21:52;17.38;;;6.00;;
33138;SDS011;19501;50.948;5.316;2023-08-31T08:24:17;19.25;;;6.03;;
33138;SDS011;19501;50.948;5.316;2023-08-31T08:26:43;18.85;;;6.32;;
33138;SDS011;19501;50.948;5.316;2023-08-31T08:29:09;20.10;;;6.70;;
33138;SDS011;19501;50.948;5.316;2023-08-31T08:31:35;33.25;;;8.02;;
33138;SDS011;19501;50.948;5.316;2023-08-31T08:34:00;22.85;;;6.82;;
33138;SDS011;19501;50.948;5.316;2023-08-31T08:36:29;18.80;;;6.60;;
33138;SDS011;19501;50.948;5.316;2023-08-31T08:38:55;20.65;;;6.50;;
33138;SDS011;19501;50.948;5.316;2023-08-31T08:41:23;25.77;;;7.30;;
33138;SDS011;19501;50.948;5.316;2023-08-31T08:43:50;19.10;;;6.05;;
33138;SDS011;19501;50.948;5.316;2023-08-31T08:46:16;16.85;;;6.20;;
33138;SDS011;19501;50.948;5.316;2023-08-31T08:48:42;18.77;;;6.10;;
33138;SDS011;19501;50.948;5.316;2023-08-31T08:51:10;21.60;;;7.10;;
33138;SDS011;19501;50.948;5.316;2023-08-31T08:53:37;20.10;;;7.00;;
33138;SDS011;19501;50.948;5.316;2023-08-31T08:56:06;21.40;;;7.45;;
33138;SDS011;19501;50.948;5.316;2023-08-31T08:58:34;23.90;;;7.28;;
33138;SDS011;19501;50.948;5.316;2023-08-31T09:00:59;20.77;;;7.40;;
33138;SDS011;19501;50.948;5.316;2023-08-31T09:03:26;20.23;;;6.88;;
33138;SDS011;19501;50.948;5.316;2023-08-31T09:05:52;21.00;;;6.70;;
33138;SDS011;19501;50.948;5.316;2023-08-31T09:08:20;23.15;;;7.30;;
33138;SDS011;19501;50.948;5.316;2023-08-31T09:10:51;17.88;;;6.28;;
33138;SDS011;19501;50.948;5.316;2023-08-31T09:13:17;21.98;;;6.63;;
33138;SDS011;19501;50.948;5.316;2023-08-31T09:15:47;18.67;;;7.15;;
33138;SDS011;19501;50.948;5.316;2023-08-31T09:18:35;21.45;;;7.30;;
33138;SDS011;19501;50.948;5.316;2023-08-31T09:21:04;19.90;;;6.00;;
33138;SDS011;19501;50.948;5.316;2023-08-31T09:23:30;18.77;;;6.78;;
33138;SDS011;19501;50.948;5.316;2023-08-31T09:25:56;19.30;;;6.60;;
33138;SDS011;19501;50.948;5.316;2023-08-31T09:28:23;22.40;;;6.35;;
33138;SDS011;19501;50.948;5.316;2023-08-31T09:30:52;19.20;;;5.88;;
33138;SDS011;19501;50.948;5.316;2023-08-31T09:33:21;16.73;;;6.60;;
33138;SDS011;19501;50.948;5.316;2023-08-31T09:35:56;19.58;;;6.78;;
33138;SDS011;19501;50.948;5.316;2023-08-31T09:38:22;20.17;;;6.82;;
33138;SDS011;19501;50.948;5.316;2023-08-31T09:40:48;15.63;;;6.32;;
33138;SDS011;19501;50.948;5.316;2023-08-31T09:43:23;18.23;;;6.53;;
33138;SDS011;19501;50.948;5.316;2023-08-31T09:45:49;22.83;;;6.63;;
33138;SDS011;19501;50.948;5.316;2023-08-31T09:48:16;18.17;;;6.68;;
33138;SDS011;19501;50.948;5.316;2023-08-31T09:50:45;18.02;;;6.03;;
33138;SDS011;19501;50.948;5.316;2023-08-31T09:53:11;19.92;;;6.40;;
33138;SDS011;19501;50.948;5.316;2023-08-31T09:55:41;16.85;;;6.40;;
33138;SDS011;19501;50.948;5.316;2023-08-31T09:58:08;17.42;;;7.22;;
33138;SDS011;19501;50.948;5.316;2023-08-31T10:00:35;19.30;;;6.15;;
33138;SDS011;19501;50.948;5.316;2023-08-31T10:03:03;17.38;;;6.60;;
33138;SDS011;19501;50.948;5.316;2023-08-31T10:05:30;17.38;;;5.85;;
33138;SDS011;19501;50.948;5.316;2023-08-31T10:07:59;13.95;;;5.80;;
33138;SDS011;19501;50.948;5.316;2023-08-31T10:10:26;17.60;;;6.35;;
33138;SDS011;19501;50.948;5.316;2023-08-31T10:12:56;17.02;;;5.57;;
33138;SDS011;19501;50.948;5.316;2023-08-31T10:15:23;16.55;;;5.95;;
33138;SDS011;19501;50.948;5.316;2023-08-31T10:17:51;16.27;;;5.90;;
33138;SDS011;19501;50.948;5.316;2023-08-31T10:20:17;19.27;;;6.07;;
33138;SDS011;19501;50.948;5.316;2023-08-31T10:22:43;13.65;;;5.38;;
33138;SDS011;19501;50.948;5.316;2023-08-31T10:25:09;21.40;;;5.60;;
33138;SDS011;19501;50.948;5.316;2023-08-31T10:27:40;16.63;;;6.30;;
33138;SDS011;19501;50.948;5.316;2023-08-31T10:30:14;15.52;;;5.03;;
33138;SDS011;19501;50.948;5.316;2023-08-31T10:35:52;16.58;;;5.57;;
33138;SDS011;19501;50.948;5.316;2023-08-31T10:38:26;12.57;;;5.20;;
33138;SDS011;19501;50.948;5.316;2023-08-31T10:41:02;15.00;;;4.68;;
33138;SDS011;19501;50.948;5.316;2023-08-31T10:43:43;15.55;;;4.22;;
33138;SDS011;19501;50.948;5.316;2023-08-31T10:46:26;13.20;;;4.25;;
33138;SDS011;19501;50.948;5.316;2023-08-31T10:51:29;12.93;;;4.15;;
33138;SDS011;19501;50.948;5.316;2023-08-31T10:56:31;14.48;;;4.38;;
33138;SDS011;19501;50.948;5.316;2023-08-31T10:58:57;14.38;;;3.90;;
33138;SDS011;19501;50.948;5.316;2023-08-31T11:04:25;8.57;;;3.80;;
33138;SDS011;19501;50.948;5.316;2023-08-31T11:09:41;10.73;;;3.50;;
33138;SDS011;19501;50.948;5.316;2023-08-31T11:12:07;10.35;;;3.60;;
33138;SDS011;19501;50.948;5.316;2023-08-31T11:14:33;9.50;;;3.28;;
33138;SDS011;19501;50.948;5.316;2023-08-31T11:17:00;11.05;;;3.80;;
33138;SDS011;19501;50.948;5.316;2023-08-31T11:19:26;9.90;;;3.33;;
33138;SDS011;19501;50.948;5.316;2023-08-31T11:21:53;12.65;;;3.60;;
33138;SDS011;19501;50.948;5.316;2023-08-31T11:24:19;11.90;;;4.03;;
33138;SDS011;19501;50.948;5.316;2023-08-31T11:26:51;8.65;;;3.30;;
33138;SDS011;19501;50.948;5.316;2023-08-31T11:29:18;10.15;;;3.40;;
33138;SDS011;19501;50.948;5.316;2023-08-31T11:31:43;11.95;;;3.67;;
33138;SDS011;19501;50.948;5.316;2023-08-31T11:34:15;12.05;;;3.40;;
33138;SDS011;19501;50.948;5.316;2023-08-31T11:36:42;12.57;;;3.78;;
33138;SDS011;19501;50.948;5.316;2023-08-31T11:39:09;10.57;;;3.78;;
33138;SDS011;19501;50.948;5.316;2023-08-31T11:41:35;13.73;;;3.70;;
33138;SDS011;19501;50.948;5.316;2023-08-31T11:44:06;15.20;;;4.30;;
33138;SDS011;19501;50.948;5.316;2023-08-31T11:46:34;12.75;;;3.20;;
33138;SDS011;19501;50.948;5.316;2023-08-31T11:49:01;10.23;;;3.47;;
33138;SDS011;19501;50.948;5.316;2023-08-31T11:51:29;9.35;;;3.00;;
33138;SDS011;19501;50.948;5.316;2023-08-31T11:53:59;13.88;;;3.75;;
33138;SDS011;19501;50.948;5.316;2023-08-31T11:56:41;10.02;;;3.40;;
33138;SDS011;19501;50.948;5.316;2023-08-31T11:59:11;15.23;;;4.43;;
33138;SDS011;19501;50.948;5.316;2023-08-31T12:01:38;9.32;;;3.72;;
33138;SDS011;19501;50.948;5.316;2023-08-31T12:06:40;11.23;;;3.92;;
33138;SDS011;19501;50.948;5.316;2023-08-31T12:09:09;12.85;;;4.20;;
33138;SDS011;19501;50.948;5.316;2023-08-31T12:11:35;8.55;;;3.55;;
33138;SDS011;19501;50.948;5.316;2023-08-31T12:14:17;11.90;;;4.05;;
33138;SDS011;19501;50.948;5.316;2023-08-31T12:16:45;14.88;;;4.57;;
33138;SDS011;19501;50.948;5.316;2023-08-31T12:19:10;15.98;;;4.10;;
33138;SDS011;19501;50.948;5.316;2023-08-31T12:21:36;13.73;;;4.30;;
33138;SDS011;19501;50.948;5.316;2023-08-31T12:24:11;14.23;;;4.00;;
33138;SDS011;19501;50.948;5.316;2023-08-31T12:26:37;14.10;;;4.22;;
33138;SDS011;19501;50.948;5.316;2023-08-31T12:29:03;9.77;;;4.15;;
33138;SDS011;19501;50.948;5.316;2023-08-31T12:31:32;10.18;;;3.67;;
33138;SDS011;19501;50.948;5.316;2023-08-31T12:33:58;8.73;;;3.38;;
33138;SDS011;19501;50.948;5.316;2023-08-31T12:36:31;12.00;;;3.80;;
33138;SDS011;19501;50.948;5.316;2023-08-31T12:38:57;10.82;;;3.80;;
33138;SDS011;19501;50.948;5.316;2023-08-31T12:41:26;14.52;;;3.90;;
33138;SDS011;19501;50.948;5.316;2023-08-31T12:43:54;13.07;;;3.95;;
33138;SDS011;19501;50.948;5.316;2023-08-31T12:46:20;13.73;;;3.72;;
33138;SDS011;19501;50.948;5.316;2023-08-31T12:48:46;12.25;;;3.45;;
33138;SDS011;19501;50.948;5.316;2023-08-31T12:51:14;11.45;;;4.07;;
33138;SDS011;19501;50.948;5.316;2023-08-31T12:53:40;14.25;;;4.07;;
33138;SDS011;19501;50.948;5.316;2023-08-31T12:56:06;9.88;;;3.50;;
33138;SDS011;19501;50.948;5.316;2023-08-31T12:58:32;7.07;;;3.33;;
33138;SDS011;19501;50.948;5.316;2023-08-31T13:00:58;13.70;;;3.60;;
33138;SDS011;19501;50.948;5.316;2023-08-31T13:03:24;13.85;;;3.60;;
33138;SDS011;19501;50.948;5.316;2023-08-31T13:05:50;17.27;;;5.20;;
33138;SDS011;19501;50.948;5.316;2023-08-31T13:08:16;11.82;;;3.60;;
33138;SDS011;19501;50.948;5.316;2023-08-31T13:10:42;12.60;;;3.50;;
33138;SDS011;19501;50.948;5.316;2023-08-31T13:13:07;10.85;;;3.50;;
33138;SDS011;19501;50.948;5.316;2023-08-31T13:15:36;7.82;;;3.45;;
33138;SDS011;19501;50.948;5.316;2023-08-31T13:18:02;11.80;;;3.78;;
33138;SDS011;19501;50.948;5.316;2023-08-31T13:20:28;9.80;;;3.13;;
33138;SDS011;19501;50.948;5.316;2023-08-31T13:22:55;9.77;;;3.50;;
33138;SDS011;19501;50.948;5.316;2023-08-31T13:25:23;10.35;;;3.42;;
33138;SDS011;19501;50.948;5.316;2023-08-31T13:27:48;15.02;;;3.40;;
33138;SDS011;19501;50.948;5.316;2023-08-31T13:30:14;6.20;;;2.80;;
33138;SDS011;19501;50.948;5.316;2023-08-31T13:32:40;10.77;;;3.35;;
33138;SDS011;19501;50.948;5.316;2023-08-31T13:35:06;16.25;;;4.45;;
33138;SDS011;19501;50.948;5.316;2023-08-31T13:37:33;14.73;;;3.40;;
33138;SDS011;19501;50.948;5.316;2023-08-31T13:39:59;8.40;;;3.08;;
33138;SDS011;19501;50.948;5.316;2023-08-31T13:42:25;9.82;;;3.38;;
33138;SDS011;19501;50.948;5.316;2023-08-31T13:44:51;8.77;;;3.20;;
33138;SDS011;19501;50.948;5.316;2023-08-31T13:47:17;10.73;;;2.88;;
33138;SDS011;19501;50.948;5.316;2023-08-31T13:49:43;12.13;;;3.05;;
33138;SDS011;19501;50.948;5.316;2023-08-31T13:52:08;12.15;;;3.50;;
33138;SDS011;19501;50.948;5.316;2023-08-31T13:54:35;12.98;;;2.90;;
33138;SDS011;19501;50.948;5.316;2023-08-31T13:57:01;11.82;;;3.10;;
33138;SDS011;19501;50.948;5.316;2023-08-31T13:59:27;13.23;;;3.83;;
33138;SDS011;19501;50.948;5.316;2023-08-31T14:01:53;18.92;;;4.95;;
33138;SDS011;19501;50.948;5.316;2023-08-31T14:04:19;11.80;;;3.33;;
33138;SDS011;19501;50.948;5.316;2023-08-31T14:06:47;10.55;;;3.33;;
33138;SDS011;19501;50.948;5.316;2023-08-31T14:09:13;11.63;;;3.20;;
33138;SDS011;19501;50.948;5.316;2023-08-31T14:11:40;12.40;;;3.22;;
33138;SDS011;19501;50.948;5.316;2023-08-31T14:14:06;15.18;;;3.28;;
33138;SDS011;19501;50.948;5.316;2023-08-31T14:16:35;10.98;;;3.38;;
33138;SDS011;19501;50.948;5.316;2023-08-31T14:19:02;10.20;;;3.65;;
33138;SDS011;19501;50.948;5.316;2023-08-31T14:21:28;11.77;;;3.45;;
33138;SDS011;19501;50.948;5.316;2023-08-31T14:23:54;9.48;;;2.90;;
33138;SDS011;19501;50.948;5.316;2023-08-31T14:26:24;14.93;;;3.60;;
33138;SDS011;19501;50.948;5.316;2023-08-31T14:28:50;10.38;;;3.45;;
33138;SDS011;19501;50.948;5.316;2023-08-31T14:31:17;9.15;;;3.25;;
33138;SDS011;19501;50.948;5.316;2023-08-31T14:33:43;11.43;;;3.22;;
33138;SDS011;19501;50.948;5.316;2023-08-31T14:36:09;14.80;;;3.50;;
33138;SDS011;19501;50.948;5.316;2023-08-31T14:38:36;13.40;;;3.38;;
33138;SDS011;19501;50.948;5.316;2023-08-31T14:41:02;11.10;;;3.60;;
33138;SDS011;19501;50.948;5.316;2023-08-31T14:43:28;12.82;;;3.35;;
33138;SDS011;19501;50.948;5.316;2023-08-31T14:45:54;8.88;;;3.30;;
33138;SDS011;19501;50.948;5.316;2023-08-31T14:48:20;9.48;;;3.47;;
33138;SDS011;19501;50.948;5.316;2023-08-31T14:50:45;9.75;;;3.65;;
33138;SDS011;19501;50.948;5.316;2023-08-31T14:53:11;10.00;;;3.50;;
33138;SDS011;19501;50.948;5.316;2023-08-31T14:55:37;11.13;;;4.20;;
33138;SDS011;19501;50.948;5.316;2023-08-31T14:58:04;13.75;;;4.10;;
33138;SDS011;19501;50.948;5.316;2023-08-31T15:00:32;11.32;;;4.07;;